Terminal Aerodrome Forecast
Issued by NWS

Home | Current Version | Previous Version | Text Only | Print | Product List | Glossary On
Versions: 1 2 3 4 5 6 7 8 9 10 11 12 13 14 15 16 17 18
000
FTUS46 KMTR 251500 AAA
TAFSNS
TAF AMD
KSNS 251530Z 2516/2612 23013KT P6SM FEW008 SCT080
     FM251800 27012G18KT P6SM SCT020 SCT040
     FM260200 26008G12KT P6SM BKN015=

USA.gov is the U.S. government's official web portal to all federal, state and local government web resources and services.